Time;durP1;ratioP1;P1;durP2;ratioP2;P2;SDS_P1;SDS_P2;PMS_P1;PMS_P2;Temp;Humidity;BMP_temperature;BMP_pressure;BME280_temperature;BME280_humidity;BME280_pressure;Samples;Min_cycle;Max_cycle;Signal;HPM_P1;HPM_P2
2022/01/15 00:01:45;;;;;;;152.52;37.25;;;;;;;2.57;100.00;103444.06;5075459;28;20043;-81
2022/01/15 00:04:11;;;;;;;140.68;36.38;;;;;;;2.57;100.00;103436.16;5074150;28;20040;-81
2022/01/15 00:06:36;;;;;;;144.98;36.25;;;;;;;2.56;100.00;103441.44;5057658;28;20050;-81
2022/01/15 00:09:03;;;;;;;151.88;37.85;;;;;;;2.56;100.00;103441.44;5075039;28;20421;-81
2022/01/15 00:11:29;;;;;;;141.73;36.70;;;;;;;2.55;100.00;103437.06;5074834;28;20059;-81
2022/01/15 00:14:11;;;;;;;152.70;38.33;;;;;;;2.53;100.00;103434.47;5075239;28;20060;-81
2022/01/15 00:16:55;;;;;;;141.50;35.88;;;;;;;2.52;100.00;103431.88;5075280;28;20032;-81
2022/01/15 00:19:31;;;;;;;119.53;33.85;;;;;;;2.48;100.00;103428.44;5075423;28;20368;-81
2022/01/15 00:21:57;;;;;;;150.75;35.90;;;;;;;2.45;100.00;103420.59;5075002;28;20032;-81
2022/01/15 00:24:24;;;;;;;164.93;36.65;;;;;;;2.45;100.00;103415.34;5074101;28;20123;-81
2022/01/15 00:26:50;;;;;;;167.27;36.70;;;;;;;2.43;100.00;103407.47;5073408;28;20041;-81
2022/01/15 00:29:15;;;;;;;146.43;35.58;;;;;;;2.43;100.00;103401.34;5072849;28;20037;-81
2022/01/15 00:31:40;;;;;;;167.32;36.90;;;;;;;2.43;100.00;103401.34;5074470;28;20123;-81
2022/01/15 00:34:06;;;;;;;170.27;39.25;;;;;;;2.42;100.00;103394.34;5073768;28;20457;-80
2022/01/15 00:36:31;;;;;;;172.63;37.75;;;;;;;2.41;100.00;103395.25;5073623;28;20029;-81
2022/01/15 00:38:56;;;;;;;164.60;37.33;;;;;;;2.41;100.00;103398.72;5073046;28;20399;-81
2022/01/15 00:41:22;;;;;;;192.85;39.35;;;;;;;2.41;100.00;103392.63;5075081;28;20036;-81
2022/01/15 00:43:47;;;;;;;172.43;37.63;;;;;;;2.41;100.00;103388.22;5074312;28;20377;-81
2022/01/15 00:46:12;;;;;;;195.70;36.55;;;;;;;2.39;100.00;103387.38;5055998;28;20465;-80
2022/01/15 00:48:38;;;;;;;155.50;35.30;;;;;;;2.37;100.00;103380.41;5074207;28;20063;-81
2022/01/15 00:51:03;;;;;;;161.90;33.83;;;;;;;2.36;100.00;103386.53;5072949;28;20033;-81
2022/01/15 00:53:29;;;;;;;150.20;32.45;;;;;;;2.32;100.00;103384.88;5073826;28;20037;-81
2022/01/15 00:55:54;;;;;;;158.98;34.13;;;;;;;2.30;100.00;103377.03;5073750;28;20033;-81
2022/01/15 00:58:19;;;;;;;168.50;32.65;;;;;;;2.29;100.00;103391.03;5072673;28;20039;-80
2022/01/15 01:00:45;;;;;;;151.77;32.28;;;;;;;2.25;100.00;103381.47;5072373;28;20039;-81
2022/01/15 01:03:10;;;;;;;168.30;33.85;;;;;;;2.24;100.00;103374.47;5072498;28;20029;-81
2022/01/15 01:05:36;;;;;;;166.48;33.80;;;;;;;2.21;100.00;103371.88;5073744;28;20366;-81
2022/01/15 01:08:01;;;;;;;177.73;33.25;;;;;;;2.22;100.00;103363.13;5073987;28;20036;-81
2022/01/15 01:23:23;;;;;;;187.63;34.05;;;;;;;2.20;100.00;103350.00;5073489;28;20130;-81
2022/01/15 01:25:54;;;;;;;159.18;33.08;;;;;;;2.20;100.00;103351.78;5073035;28;20036;-81
2022/01/15 01:28:27;;;;;;;152.32;31.85;;;;;;;2.17;100.00;103352.69;5073900;28;20032;-80
2022/01/15 01:31:10;;;;;;;150.70;29.27;;;;;;;2.14;100.00;103357.13;5074125;28;20051;-81
2022/01/15 01:33:39;;;;;;;128.98;27.52;;;;;;;2.08;100.00;103351.06;5074373;28;20170;-80
2022/01/15 01:36:16;;;;;;;116.40;26.15;;;;;;;2.04;100.00;103357.22;5073431;28;20055;-81
2022/01/15 01:38:58;;;;;;;153.02;27.77;;;;;;;2.02;100.00;103355.53;5073834;28;20114;-81
2022/01/15 01:41:24;;;;;;;126.53;26.10;;;;;;;1.97;100.00;103344.22;5073069;28;20037;-81
2022/01/15 01:43:58;;;;;;;126.32;24.98;;;;;;;1.96;100.00;103345.09;5073489;28;20484;-81
2022/01/15 01:48:49;;;;;;;140.95;28.48;;;;;;;1.92;100.00;103341.66;5073144;28;20537;-81
2022/01/15 01:51:37;;;;;;;138.13;28.05;;;;;;;1.90;100.00;103343.44;5073676;28;20033;-81
2022/01/15 01:54:05;;;;;;;148.02;28.05;;;;;;;1.86;100.00;103337.34;5073940;28;20396;-81
2022/01/15 01:56:31;;;;;;;163.10;30.15;;;;;;;1.86;100.00;103331.25;5072888;28;20036;-81
2022/01/15 01:58:58;;;;;;;147.45;28.75;;;;;;;1.86;100.00;103333.88;5071978;28;20404;-81
2022/01/15 02:01:24;;;;;;;157.75;30.20;;;;;;;1.88;100.00;103322.47;5071582;28;20028;-80
2022/01/15 02:03:50;;;;;;;169.13;31.42;;;;;;;1.89;100.00;103323.31;5073072;28;20036;-81
2022/01/15 02:06:17;;;;;;;176.05;32.20;;;;;;;1.90;100.00;103317.19;5073775;28;20036;-81
2022/01/15 02:08:42;;;;;;;184.60;33.67;;;;;;;1.91;100.00;103305.78;5073262;28;20482;-81
2022/01/15 02:11:08;;;;;;;194.25;31.73;;;;;;;1.92;100.00;103312.78;5072475;28;20063;-81
2022/01/15 02:13:38;;;;;;;165.15;31.05;;;;;;;1.94;100.00;103313.59;5072958;28;20063;-81
2022/01/15 02:16:03;;;;;;;166.15;31.23;;;;;;;1.94;100.00;103309.25;5073287;28;20094;-82
2022/01/15 02:18:29;;;;;;;170.88;31.58;;;;;;;1.94;100.00;103301.38;5071267;28;20465;-80
2022/01/15 02:23:52;;;;;;;143.70;29.33;;;;;;;1.95;100.00;103304.84;5041634;28;20072;-81
2022/01/15 02:26:23;;;;;;;172.77;31.73;;;;;;;1.94;100.00;103300.47;5073926;28;20024;-81
2022/01/15 02:29:01;;;;;;;162.48;29.58;;;;;;;1.90;100.00;103296.19;5072954;28;20024;-81
2022/01/15 02:31:28;;;;;;;147.45;27.33;;;;;;;1.87;100.00;103296.22;5073110;28;20143;-80
2022/01/15 02:33:55;;;;;;;138.43;26.80;;;;;;;1.85;100.00;103290.13;5073505;28;20033;-82
2022/01/15 02:36:34;;;;;;;150.55;28.30;;;;;;;1.82;100.00;103290.16;5055117;28;20037;-81
2022/01/15 02:39:00;;;;;;;138.38;28.30;;;;;;;1.81;100.00;103283.16;5072790;28;20041;-81
2022/01/15 02:41:34;;;;;;;146.65;27.58;;;;;;;1.81;100.00;103277.91;5072896;28;20488;-80
2022/01/15 02:44:02;;;;;;;154.27;28.55;;;;;;;1.82;100.00;103272.69;5072861;28;20024;-81
2022/01/15 02:48:56;;;;;;;144.55;26.45;;;;;;;1.80;100.00;103269.19;5073094;28;20040;-80
2022/01/15 02:51:24;;;;;;;149.57;28.77;;;;;;;1.78;100.00;103260.47;5073029;28;20034;-81
2022/01/15 02:53:57;;;;;;;144.60;28.35;;;;;;;1.76;100.00;103262.25;5072441;28;20028;-81
2022/01/15 02:56:23;;;;;;;159.55;30.13;;;;;;;1.76;100.00;103263.13;5072998;28;20141;-80
2022/01/15 02:58:49;;;;;;;185.77;28.27;;;;;;;1.76;100.00;103257.88;5055486;28;20048;-80
2022/01/15 03:01:14;;;;;;;197.20;29.77;;;;;;;1.77;100.00;103258.72;5074823;28;20060;-80
2022/01/15 03:03:40;;;;;;;181.45;29.63;;;;;;;1.77;100.00;103250.84;5076018;28;20511;-80
2022/01/15 03:06:10;;;;;;;193.85;28.83;;;;;;;1.79;100.00;103253.47;5076726;28;20039;-81
2022/01/15 03:08:35;;;;;;;161.05;29.27;;;;;;;1.78;100.00;103249.97;5076838;28;20036;-81
2022/01/15 03:11:01;;;;;;;165.93;28.30;;;;;;;1.76;100.00;103244.75;5076429;28;20112;-81
2022/01/15 03:13:27;;;;;;;162.73;28.77;;;;;;;1.73;100.00;103247.44;5076723;28;20041;-81
2022/01/15 03:15:52;;;;;;;144.90;27.48;;;;;;;1.70;100.00;103242.22;5076588;28;20120;-81
2022/01/15 03:18:17;;;;;;;152.23;27.42;;;;;;;1.68;100.00;103240.50;5075068;28;20464;-81
2022/01/15 03:20:43;;;;;;;153.40;27.80;;;;;;;1.67;100.00;103237.03;5076079;28;20028;-81
2022/01/15 03:23:08;;;;;;;168.00;28.77;;;;;;;1.69;100.00;103237.00;5074852;28;20384;-81
2022/01/15 03:25:34;;;;;;;154.60;28.35;;;;;;;1.68;100.00;103233.47;5075276;28;20029;-80
2022/01/15 03:27:59;;;;;;;165.65;28.83;;;;;;;1.67;100.00;103237.03;5075835;28;20028;-81
2022/01/15 03:30:24;;;;;;;137.05;25.58;;;;;;;1.66;100.00;103231.78;5076466;28;20147;-81
2022/01/15 03:32:50;;;;;;;152.07;28.05;;;;;;;1.63;100.00;103231.81;5076188;28;20376;-81
2022/01/15 03:35:17;;;;;;;152.35;27.17;;;;;;;1.60;100.00;103219.63;5075847;28;20433;-81
2022/01/15 03:37:43;;;;;;;154.30;29.92;;;;;;;1.58;100.00;103213.50;5075237;28;20033;-81
2022/01/15 03:40:11;;;;;;;136.52;27.92;;;;;;;1.57;100.00;103219.66;5076522;28;20488;-81
2022/01/15 03:42:37;;;;;;;164.00;29.08;;;;;;;1.54;100.00;103217.94;5075161;28;20036;-80
2022/01/15 03:45:04;;;;;;;146.68;28.25;;;;;;;1.52;100.00;103210.97;5076764;28;20032;-81
2022/01/15 03:47:29;;;;;;;149.07;27.48;;;;;;;1.52;100.00;103218.84;5076096;28;20036;-80
2022/01/15 03:49:55;;;;;;;163.85;27.80;;;;;;;1.51;100.00;103220.63;5058910;28;20152;-80
2022/01/15 03:52:20;;;;;;;141.82;26.63;;;;;;;1.51;100.00;103218.00;5074616;28;20029;-81
2022/01/15 03:54:45;;;;;;;145.05;27.27;;;;;;;1.51;100.00;103217.13;5074051;28;20035;-81
2022/01/15 03:57:11;;;;;;;150.88;27.75;;;;;;;1.49;100.00;103219.75;5074489;28;20028;-80
2022/01/15 03:59:37;;;;;;;129.73;24.48;;;;;;;1.50;100.00;103218.03;5074077;28;20487;-80
2022/01/15 04:02:02;;;;;;;125.88;25.42;;;;;;;1.49;100.00;103218.91;5074864;28;20028;-82
2022/01/15 04:04:28;;;;;;;144.15;24.85;;;;;;;1.48;100.00;103209.28;5075054;28;20059;-81
2022/01/15 04:06:53;;;;;;;129.52;23.30;;;;;;;1.43;100.00;103198.84;5074937;28;20036;-81
2022/01/15 04:09:19;;;;;;;127.53;25.25;;;;;;;1.42;100.00;103194.53;5074121;28;20078;-81
2022/01/15 04:11:45;;;;;;;148.48;24.92;;;;;;;1.38;100.00;103191.06;5073768;28;20500;-82
2022/01/15 04:14:11;;;;;;;103.13;22.70;;;;;;;1.36;100.00;103182.34;5075605;28;20068;-80
2022/01/15 04:16:37;;;;;;;108.90;23.52;;;;;;;1.34;100.00;103188.50;5074759;28;20044;-81
2022/01/15 04:19:03;;;;;;;114.97;22.50;;;;;;;1.32;100.00;103185.03;5056825;28;20067;-81
2022/01/15 04:21:28;;;;;;;105.53;21.80;;;;;;;1.30;100.00;103194.66;5074681;28;20043;-82
2022/01/15 04:23:54;;;;;;;139.88;23.50;;;;;;;1.25;100.00;103189.50;5075177;28;20036;-82
2022/01/15 04:26:24;;;;;;;118.80;22.13;;;;;;;1.21;100.00;103183.44;5075312;28;20466;-81
2022/01/15 04:28:51;;;;;;;122.97;22.90;;;;;;;1.21;100.00;103172.09;5075826;28;20046;-81
2022/01/15 04:31:17;;;;;;;108.45;24.08;;;;;;;1.21;100.00;103172.09;5075209;28;20051;-81
2022/01/15 04:33:43;;;;;;;143.32;23.00;;;;;;;1.20;100.00;103175.59;5074392;28;20017;-81
2022/01/15 04:36:12;;;;;;;120.00;24.42;;;;;;;1.19;100.00;103176.47;5074504;28;20052;-81
2022/01/15 04:38:38;;;;;;;118.78;23.52;;;;;;;1.20;100.00;103167.72;5073421;28;20428;-81
2022/01/15 04:41:08;;;;;;;144.15;27.02;;;;;;;1.19;100.00;103171.22;5074288;28;20131;-81
2022/01/15 04:43:34;;;;;;;138.73;27.02;;;;;;;1.21;100.00;103174.72;5073045;28;20032;-82
2022/01/15 04:46:01;;;;;;;163.48;27.33;;;;;;;1.21;100.00;103172.09;5073929;28;20512;-82
2022/01/15 04:48:27;;;;;;;145.02;28.40;;;;;;;1.22;100.00;103174.69;5074285;28;20024;-81
2022/01/15 04:50:53;;;;;;;131.35;26.40;;;;;;;1.25;100.00;103165.88;5073747;28;20108;-81
2022/01/15 04:53:18;;;;;;;140.02;26.75;;;;;;;1.26;100.00;103161.53;5073158;28;20448;-82
2022/01/15 04:55:44;;;;;;;149.13;24.58;;;;;;;1.22;100.00;103158.94;5072638;28;20033;-79
2022/01/15 04:58:10;;;;;;;121.25;23.77;;;;;;;1.22;100.00;103155.44;5073315;28;20037;-82
2022/01/15 05:00:36;;;;;;;159.63;24.80;;;;;;;1.19;100.00;103150.25;5074262;28;20039;-82
2022/01/15 05:03:02;;;;;;;134.90;21.85;;;;;;;1.15;100.00;103149.44;5073550;28;20421;-81
2022/01/15 05:05:29;;;;;;;115.90;23.38;;;;;;;1.14;100.00;103146.81;5074007;28;20033;-81
2022/01/15 05:07:55;;;;;;;144.75;22.40;;;;;;;1.13;100.00;103143.31;5072589;28;20503;-81
2022/01/15 05:10:25;;;;;;;132.20;24.23;;;;;;;1.15;100.00;103140.66;5073521;28;20040;-81
2022/01/15 05:12:54;;;;;;;171.90;25.58;;;;;;;1.15;100.00;103140.66;5073832;28;20453;-81
2022/01/15 05:15:20;;;;;;;134.95;23.95;;;;;;;1.12;100.00;103125.88;5073875;28;20033;-82
2022/01/15 05:17:47;;;;;;;129.98;22.58;;;;;;;1.10;100.00;103122.38;5056764;28;20059;-80
2022/01/15 05:20:16;;;;;;;118.38;21.23;;;;;;;1.10;100.00;103121.53;5074438;28;20111;-81
2022/01/15 05:22:42;;;;;;;121.07;20.63;;;;;;;1.07;100.00;103111.94;5074375;28;20036;-82
2022/01/15 05:25:08;;;;;;;92.28;19.33;;;;;;;1.05;100.00;103105.88;5056512;28;20032;-82
2022/01/15 05:27:36;;;;;;;104.40;18.85;;;;;;;1.00;100.00;103098.06;5056782;28;20032;-82
2022/01/15 05:30:04;;;;;;;106.22;18.85;;;;;;;0.98;100.00;103091.09;5073973;28;20064;-82
2022/01/15 05:32:30;;;;;;;92.63;20.40;;;;;;;0.95;100.00;103092.00;5072683;28;20137;-82
2022/01/15 05:34:57;;;;;;;143.85;20.80;;;;;;;0.90;100.00;103091.22;5072020;28;20056;-81
2022/01/15 05:37:23;;;;;;;108.30;20.70;;;;;;;0.91;100.00;103087.72;5073435;28;20043;-82
2022/01/15 05:39:48;;;;;;;182.40;21.27;;;;;;;0.89;100.00;103086.84;5071946;28;20048;-80
2022/01/15 05:42:14;;;;;;;138.82;20.35;;;;;;;0.84;100.00;103089.53;5073996;28;20032;-82
2022/01/15 05:44:39;;;;;;;118.47;20.27;;;;;;;0.84;100.00;103084.28;5073471;28;20036;-81
2022/01/15 05:47:05;;;;;;;111.25;20.63;;;;;;;0.85;100.00;103082.53;5071819;28;20116;-81
2022/01/15 05:49:30;;;;;;;171.20;21.50;;;;;;;0.82;100.00;103088.72;5055486;28;20028;-82
2022/01/15 05:51:57;;;;;;;121.30;22.33;;;;;;;0.83;100.00;103079.94;5073252;28;20033;-81
2022/01/15 05:54:22;;;;;;;171.45;24.13;;;;;;;0.82;100.00;103085.19;5072520;28;20032;-82
2022/01/15 05:56:47;;;;;;;200.70;23.52;;;;;;;0.70;100.00;103076.63;5072277;28;20422;-82
2022/01/15 05:59:13;;;;;;;139.25;20.85;;;;;;;0.69;100.00;103076.66;5055888;28;20037;-82
2022/01/15 06:01:39;;;;;;;110.97;21.40;;;;;;;0.70;100.00;103073.13;5073069;28;20028;-83
2022/01/15 06:04:05;;;;;;;170.77;24.02;;;;;;;0.72;100.00;103067.84;5072834;28;20028;-82
2022/01/15 06:06:30;;;;;;;226.18;23.80;;;;;;;0.69;100.00;103063.56;5073288;28;20485;-81
2022/01/15 06:08:56;;;;;;;173.13;23.48;;;;;;;0.68;100.00;103057.41;5071926;28;20039;-81
2022/01/15 06:11:23;;;;;;;172.82;24.27;;;;;;;0.68;100.00;103052.19;5071949;28;20116;-81
2022/01/15 06:13:49;;;;;;;150.80;24.90;;;;;;;0.69;100.00;103058.31;5056320;28;20034;-80
2022/01/15 06:16:15;;;;;;;130.80;23.45;;;;;;;0.69;100.00;103068.78;5073442;28;20368;-81
2022/01/15 06:18:41;;;;;;;121.97;21.85;;;;;;;0.67;100.00;103054.81;5072056;28;20071;-81
2022/01/15 06:21:07;;;;;;;134.50;20.27;;;;;;;0.66;100.00;103060.97;5072133;28;20427;-81
2022/01/15 06:23:33;;;;;;;244.52;22.90;;;;;;;0.60;100.00;103059.28;5071992;28;20077;-82
2022/01/15 06:25:58;;;;;;;140.27;22.25;;;;;;;0.60;100.00;103061.03;5071106;28;20024;-81
2022/01/15 06:28:24;;;;;;;131.57;21.08;;;;;;;0.55;100.00;103061.09;5072380;28;20033;-81
2022/01/15 06:30:49;;;;;;;179.27;22.90;;;;;;;0.53;100.00;103068.97;5071807;28;20021;-81
2022/01/15 06:33:15;;;;;;;243.43;25.65;;;;;;;0.51;100.00;103068.13;5072943;28;20118;-82
2022/01/15 06:35:40;;;;;;;139.98;22.65;;;;;;;0.50;100.00;103063.78;5073772;28;20522;-82
2022/01/15 06:38:06;;;;;;;162.45;24.48;;;;;;;0.51;100.00;103057.66;5075578;28;20116;-82
2022/01/15 06:40:31;;;;;;;146.25;25.73;;;;;;;0.54;100.00;103064.63;5074624;28;20499;-81
2022/01/15 06:43:00;;;;;;;193.88;26.23;;;;;;;0.55;100.00;103063.72;5076071;28;20032;-79
2022/01/15 06:45:25;;;;;;;165.00;25.63;;;;;;;0.57;100.00;103055.84;5075211;28;20187;-81
2022/01/15 06:47:51;;;;;;;195.02;24.08;;;;;;;0.56;100.00;103061.97;5074701;28;20123;-80
2022/01/15 06:50:16;;;;;;;149.07;24.52;;;;;;;0.57;100.00;103056.72;5074871;28;20028;-81
2022/01/15 06:52:41;;;;;;;188.82;26.35;;;;;;;0.58;100.00;103053.19;5074416;28;20051;-81
2022/01/15 06:55:08;;;;;;;228.25;26.27;;;;;;;0.60;100.00;103054.06;5076220;28;20040;-81
2022/01/15 06:57:34;;;;;;;146.18;24.50;;;;;;;0.64;100.00;103057.50;5076337;28;20029;-80
2022/01/15 07:00:01;;;;;;;151.23;25.27;;;;;;;0.66;100.00;103058.34;5076058;28;20397;-80
2022/01/15 07:02:27;;;;;;;189.68;24.77;;;;;;;0.67;100.00;103054.81;5076294;28;20100;-81
2022/01/15 07:04:52;;;;;;;136.32;23.30;;;;;;;0.67;100.00;103055.72;5074828;28;20122;-82
2022/01/15 07:07:17;;;;;;;130.23;22.60;;;;;;;0.62;100.00;103060.13;5075585;28;20494;-82
2022/01/15 07:09:43;;;;;;;133.50;23.35;;;;;;;0.60;100.00;103050.53;5075836;28;20032;-82
2022/01/15 07:12:09;;;;;;;148.30;22.15;;;;;;;0.56;100.00;103052.34;5075514;28;20123;-83
2022/01/15 07:14:34;;;;;;;129.82;23.10;;;;;;;0.56;100.00;103056.75;5057875;28;20468;-82
2022/01/15 07:16:59;;;;;;;144.10;24.20;;;;;;;0.57;100.00;103054.09;5057529;28;20037;-81
2022/01/15 07:19:25;;;;;;;189.55;25.63;;;;;;;0.57;100.00;103056.72;5075756;28;20028;-82
2022/01/15 07:21:50;;;;;;;124.93;23.40;;;;;;;0.57;100.00;103051.47;5073820;28;20047;-82
2022/01/15 07:24:18;;;;;;;188.05;25.27;;;;;;;0.59;100.00;103049.69;5073952;28;20051;-82
2022/01/15 07:26:44;;;;;;;160.85;25.20;;;;;;;0.62;100.00;103056.66;5075508;28;20514;-82
2022/01/15 07:29:15;;;;;;;137.25;25.02;;;;;;;0.64;100.00;103049.63;5075266;28;20040;-82
2022/01/15 07:31:42;;;;;;;160.37;26.40;;;;;;;0.64;100.00;103045.28;5074897;28;20469;-82
2022/01/15 07:34:08;;;;;;;150.55;23.45;;;;;;;0.65;100.00;103040.88;5075042;28;20067;-82
2022/01/15 07:36:33;;;;;;;158.70;24.30;;;;;;;0.65;100.00;103040.88;5074218;28;20067;-82
2022/01/15 07:38:59;;;;;;;159.30;22.98;;;;;;;0.63;100.00;103048.78;5075083;28;20059;-82
2022/01/15 07:41:24;;;;;;;145.80;22.50;;;;;;;0.62;100.00;103043.56;5075608;28;20090;-82
2022/01/15 07:43:49;;;;;;;148.68;23.33;;;;;;;0.62;100.00;103044.41;5074212;28;20636;-82
2022/01/15 07:46:15;;;;;;;113.35;23.58;;;;;;;0.64;100.00;103039.16;5073042;28;20389;-82
2022/01/15 07:48:40;;;;;;;143.10;23.98;;;;;;;0.65;100.00;103035.66;5073397;28;20048;-81
2022/01/15 07:51:07;;;;;;;170.77;25.92;;;;;;;0.67;100.00;103036.47;5074874;28;20037;-80
2022/01/15 07:53:32;;;;;;;150.50;26.15;;;;;;;0.68;100.00;103033.84;5073314;28;20079;-82
2022/01/15 07:55:58;;;;;;;193.70;26.70;;;;;;;0.69;100.00;103019.00;5073165;28;20056;-82
2022/01/15 07:58:23;;;;;;;144.90;25.90;;;;;;;0.72;100.00;103023.31;5074285;28;20131;-82
2022/01/15 08:00:48;;;;;;;163.18;28.80;;;;;;;0.74;100.00;103024.19;5074516;28;20540;-82
2022/01/15 08:03:14;;;;;;;148.02;27.10;;;;;;;0.74;100.00;103022.41;5073987;28;20033;-80
2022/01/15 08:05:39;;;;;;;185.07;28.05;;;;;;;0.74;100.00;103018.94;5056293;28;20057;-80
2022/01/15 08:08:05;;;;;;;165.75;28.90;;;;;;;0.73;100.00;103014.56;5074730;28;20111;-79
2022/01/15 08:10:30;;;;;;;254.98;30.05;;;;;;;0.72;100.00;103018.97;5075252;28;20032;-80
2022/01/15 08:12:56;;;;;;;243.57;31.73;;;;;;;0.67;100.00;103019.03;5074562;28;20033;-80
2022/01/15 08:15:21;;;;;;;235.23;31.30;;;;;;;0.67;100.00;103016.41;5074616;28;20033;-79
2022/01/15 08:17:48;;;;;;;176.60;30.13;;;;;;;0.69;100.00;103014.63;5074356;28;20021;-85
2022/01/15 08:20:14;;;;;;;189.38;32.47;;;;;;;0.69;100.00;103014.63;5074762;28;20470;-83
2022/01/15 08:22:40;;;;;;;181.65;33.55;;;;;;;0.70;100.00;103003.25;5074849;28;20055;-80
2022/01/15 08:25:07;;;;;;;234.32;36.22;;;;;;;0.73;100.00;103001.47;5073648;28;20526;-81
2022/01/15 08:27:33;;;;;;;167.02;32.00;;;;;;;0.75;100.00;103010.16;5073630;28;20032;-86
2022/01/15 08:29:58;;;;;;;194.20;34.88;;;;;;;0.74;100.00;103011.94;5075052;28;20388;-80
2022/01/15 08:32:23;;;;;;;205.65;31.60;;;;;;;0.74;100.00;103011.06;5075044;28;20110;-82
2022/01/15 08:34:49;;;;;;;191.93;31.50;;;;;;;0.73;100.00;103011.94;5075581;28;20036;-82
2022/01/15 08:37:14;;;;;;;143.43;30.80;;;;;;;0.73;100.00;103011.94;5074617;28;20037;-83
2022/01/15 08:39:40;;;;;;;179.50;33.17;;;;;;;0.74;100.00;103006.69;5072779;28;20084;-82
2022/01/15 08:42:07;;;;;;;173.10;33.50;;;;;;;0.74;100.00;103005.84;5074497;28;20087;-82
2022/01/15 08:44:33;;;;;;;208.40;34.03;;;;;;;0.76;100.00;103004.94;5074667;28;20064;-84
2022/01/15 08:47:02;;;;;;;245.38;33.92;;;;;;;0.77;100.00;102998.78;5074291;28;20040;-82
2022/01/15 08:49:27;;;;;;;187.23;31.83;;;;;;;0.80;100.00;102997.88;5056760;28;20049;-83
2022/01/15 08:51:52;;;;;;;156.73;32.97;;;;;;;0.83;100.00;103003.06;5073289;28;20033;-80
2022/01/15 08:54:18;;;;;;;156.27;31.83;;;;;;;0.84;100.00;103002.19;5072986;28;20032;-74
2022/01/15 08:56:43;;;;;;;174.10;31.73;;;;;;;0.85;100.00;103007.41;5074054;28;20110;-81
2022/01/15 08:59:09;;;;;;;231.02;34.33;;;;;;;0.84;100.00;103010.91;5073213;28;20032;-84
2022/01/15 09:01:34;;;;;;;244.35;33.75;;;;;;;0.85;100.00;103014.38;5056914;28;20051;-82
2022/01/15 09:04:00;;;;;;;162.50;33.45;;;;;;;0.86;100.00;103003.03;5074462;28;20033;-81
2022/01/15 09:06:27;;;;;;;160.20;35.15;;;;;;;0.89;100.00;103002.97;5073088;28;20115;-82
2022/01/15 09:08:53;;;;;;;165.23;35.78;;;;;;;0.92;100.00;103007.31;5057094;28;20028;-82
2022/01/15 09:11:18;;;;;;;172.20;34.92;;;;;;;0.93;100.00;103009.91;5074759;28;20036;-84
2022/01/15 09:13:43;;;;;;;160.32;32.78;;;;;;;0.96;100.00;103003.75;5075397;28;20373;-72
2022/01/15 09:16:09;;;;;;;167.77;31.98;;;;;;;0.98;100.00;103007.22;5077390;28;20036;-82
2022/01/15 09:18:35;;;;;;;161.70;31.83;;;;;;;1.00;100.00;103008.03;5076085;28;20079;-82
2022/01/15 09:21:02;;;;;;;171.70;32.33;;;;;;;0.93;100.00;103002.03;5073783;28;20062;-82
2022/01/15 09:23:27;;;;;;;148.05;29.30;;;;;;;0.95;100.00;103008.13;5074207;28;20028;-87
2022/01/15 09:25:53;;;;;;;159.45;31.13;;;;;;;0.91;100.00;103005.56;5072218;28;20442;-79
2022/01/15 09:31:03;;;;;;;137.43;28.15;;;;;;;0.94;100.00;103000.28;5073335;28;20043;-80
2022/01/15 09:33:28;;;;;;;142.95;30.67;;;;;;;0.95;100.00;102999.41;5073628;28;20377;-82
2022/01/15 09:35:54;;;;;;;147.43;30.15;;;;;;;0.98;100.00;102994.09;5073037;28;20025;-78
2022/01/15 09:38:20;;;;;;;162.60;31.38;;;;;;;0.96;100.00;102994.13;5071859;28;20454;-78
2022/01/15 09:40:46;;;;;;;126.03;29.25;;;;;;;1.00;100.00;103001.06;5072339;28;20067;-79
2022/01/15 09:43:13;;;;;;;152.63;30.35;;;;;;;1.02;100.00;103006.28;5074016;28;20421;-80
2022/01/15 09:45:40;;;;;;;157.30;31.80;;;;;;;1.06;100.00;103007.97;5073806;28;20067;-76
2022/01/15 09:48:07;;;;;;;153.27;32.75;;;;;;;1.08;100.00;103005.31;5073291;28;20048;-77
2022/01/15 09:50:36;;;;;;;165.88;33.15;;;;;;;1.14;100.00;103008.69;5073638;28;20039;-80
2022/01/15 09:53:02;;;;;;;158.80;32.35;;;;;;;1.16;100.00;103006.91;5072322;28;20510;-80
2022/01/15 09:55:28;;;;;;;145.98;32.30;;;;;;;1.19;100.00;103001.59;5073723;28;20115;-81
2022/01/15 09:57:54;;;;;;;150.88;31.83;;;;;;;1.23;100.00;103005.91;5073803;28;20136;-81
2022/01/15 10:00:22;;;;;;;138.70;30.67;;;;;;;1.22;100.00;103008.56;5073854;28;20039;-81
2022/01/15 10:02:49;;;;;;;125.43;28.80;;;;;;;1.25;100.00;103000.66;5073004;28;20024;-87
2022/01/15 10:05:16;;;;;;;115.32;28.08;;;;;;;1.25;100.00;103000.66;5076779;28;20435;-87
2022/01/15 10:08:02;;;;;;;105.82;28.30;;;;;;;1.21;100.00;103001.63;5079829;28;20082;-88
2022/01/15 10:10:32;;;;;;;104.63;28.38;;;;;;;1.22;100.00;103000.69;5081341;28;20024;-82
2022/01/15 10:13:19;;;;;;;104.55;27.42;;;;;;;1.17;100.00;102990.28;5083432;28;20033;-88
2022/01/15 10:15:47;;;;;;;98.72;26.70;;;;;;;1.20;100.00;102992.00;5078560;28;20102;-83
2022/01/15 10:18:20;;;;;;;111.72;28.77;;;;;;;1.23;100.00;102990.19;5078122;28;20397;-80
2022/01/15 10:20:45;;;;;;;113.95;29.40;;;;;;;1.25;100.00;102991.94;5075967;28;20028;-83
2022/01/15 10:23:17;;;;;;;114.93;29.95;;;;;;;1.23;100.00;102986.69;5077126;28;20181;-79
2022/01/15 10:25:42;;;;;;;124.18;30.00;;;;;;;1.27;100.00;102988.41;5077323;28;20024;-83
2022/01/15 10:28:09;;;;;;;105.93;29.17;;;;;;;1.33;100.00;102990.91;5077690;28;20033;-84
2022/01/15 10:30:35;;;;;;;77.03;26.42;;;;;;;1.33;100.00;102990.03;5059562;28;20036;-79
2022/01/15 10:33:06;;;;;;;67.47;24.98;;;;;;;1.30;100.00;102983.09;5078242;28;20090;-91
2022/01/15 10:35:33;;;;;;;74.03;26.42;;;;;;;1.32;100.00;102983.91;5075914;28;20032;-83
2022/01/15 10:38:01;;;;;;;73.13;25.23;;;;;;;1.25;100.00;102989.31;5077888;28;20028;-82
2022/01/15 10:40:43;;;;;;;82.35;27.42;;;;;;;1.29;100.00;102988.38;5076209;28;20057;-81
2022/01/15 10:43:11;;;;;;;74.88;26.40;;;;;;;1.34;100.00;102982.13;5075785;28;20080;-82
2022/01/15 10:45:48;;;;;;;76.07;25.67;;;;;;;1.40;100.00;102982.03;5075475;28;20115;-81
2022/01/15 10:48:21;;;;;;;82.10;26.85;;;;;;;1.48;100.00;102981.91;5076458;28;20028;-80
2022/01/15 10:50:56;;;;;;;72.80;24.23;;;;;;;1.52;100.00;102977.44;5075517;28;20047;-81
2022/01/15 10:53:44;;;;;;;69.90;24.98;;;;;;;1.57;100.00;102984.34;5076674;28;20035;-81
2022/01/15 10:56:11;;;;;;;62.10;23.50;;;;;;;1.59;100.00;102968.56;5077130;28;20033;-84
2022/01/15 10:58:37;;;;;;;59.65;23.58;;;;;;;1.57;100.00;102979.09;5076202;28;20024;-82
2022/01/15 11:01:03;;;;;;;63.55;22.90;;;;;;;1.50;100.00;102971.38;5074904;28;20035;-82
2022/01/15 11:03:37;;;;;;;58.40;23.63;;;;;;;1.50;100.00;102966.97;5075281;28;20024;-81
2022/01/15 11:06:04;;;;;;;60.10;22.98;;;;;;;1.51;100.00;102968.72;5076223;28;20089;-81
2022/01/15 11:08:34;;;;;;;67.03;23.83;;;;;;;1.58;100.00;102967.72;5076006;28;20568;-81
2022/01/15 11:11:05;;;;;;;63.78;23.63;;;;;;;1.63;100.00;102966.75;5075237;28;20028;-82
2022/01/15 11:13:45;;;;;;;63.17;23.05;;;;;;;1.64;100.00;102966.72;5075197;28;20079;-82
2022/01/15 11:16:17;;;;;;;65.80;24.20;;;;;;;1.67;100.00;102961.44;5076416;28;20059;-80
2022/01/15 11:18:49;;;;;;;;;;;;;;;1.66;100.00;102962.31;5075348;28;20027;-81
2022/01/15 11:21:18;;;;;;;65.45;22.63;;;;;;;1.69;100.00;102956.16;5075046;28;19912;-81
2022/01/15 11:23:45;;;;;;;63.50;22.77;;;;;;;1.73;100.00;102955.19;5074069;28;20024;-81
2022/01/15 11:26:19;;;;;;;59.63;22.95;;;;;;;1.67;100.00;102950.94;5075534;28;20032;-82